Estación Meteorológica Peña el Pijo (Robertgarden) [ 09/29/20 12:22:40 CEST ]

Fecha Hora Presion(HPa) Temp (°C) Humedad % Rocio (°C) Viento ( m/s) Direccion Lluvia 1Hora(mm) Lluvia 24H(mm) LLuvia Total(mm)
2020-Jan-03 01:01:52 1018.800 -0.1 72 -4.5         39.88
2020-Jan-03 02:01:47 1018.500 -0.1 74 -4.2         39.88
2020-Jan-03 03:01:42 1018.400 0.1 75 -3.8         39.88
2020-Jan-03 04:01:44 1018.300 -0.4 75 -4.3         39.88
2020-Jan-03 05:01:45 1018.200 -1.6 77 -5.1         39.88
2020-Jan-03 06:01:46 1018.100 -1.0 78 -4.4         39.88
2020-Jan-03 07:01:49 1018.300 -1.2 78 -4.6         39.88
2020-Jan-03 08:01:43 1018.800 -0.6 77 -4.1         39.88
2020-Jan-03 09:01:55 1018.900 -1.6 77 -5.1         39.88
2020-Jan-03 10:09:25 1019.100 - - - - N     39.88
2020-Jan-03 11:01:33 1019.200 11.2 61 3.9         39.88
2020-Jan-03 12:01:47 1018.800 15.7 41 2.4         39.88
2020-Jan-03 13:02:07 1017.600 19.1 31 1.6         39.88
2020-Jan-03 14:01:49 1017.000 18.7 29 0.3         39.88
2020-Jan-03 15:01:38 1016.500 19.1 27 -0.5         39.88
2020-Jan-03 16:01:59 1016.500 17.3 28 -1.5         39.88
2020-Jan-03 17:01:50 1017.200 14.4 32 -2.2         39.88
2020-Jan-03 18:02:10 1017.900 10.4 40 -2.6         39.88
2020-Jan-03 19:01:54 1018.100 6.3 52 -2.8         39.88
2020-Jan-03 20:02:00 1018.300 4.3 58 -3.3         39.88
2020-Jan-03 21:01:37 1018.600 2.9 63 -3.5         39.88
2020-Jan-03 22:01:42 1019.100 1.3 66 -4.4         39.88
2020-Jan-03 23:01:45 1019.300 0.3 70 -4.5         39.88

Temperatura Máxima:19°    Temperatura Mínima:-1°
Presión Máxima:1019.300 Hpa    Presión Mínima:1016.500 Hpa


Volver